首页
METAR-TAF:

METAR-TAF

机场 :

乔莫·肯雅塔国际机场

奈洛比, 肯尼亚

纬度: 01-19S, 经度: 036-55E, 海拔: 1624米

当前天气观测

该预报发布于35分钟前的09:00 UTC
风速7节,风向南转南东
温度 18°C
湿度 68%
气压 1025 hPa
能见度10公里或以上
多云层高于2400英尺

METAR: HKJK 190900Z 16007KT 9999 BKN024 18/12 Q1025

时间: 12:35 (09:35 UTC)

预报

该预报发布于4小时和35分钟前的05:00 UTC
预报有效从19日的 06点(UTC)到 20日的 12点(UTC)
风速5节,风向
能见度10公里或以上
多云层高于1700英尺
成为
从 19日的 08点(UTC)到 19日的 11点(UTC)
风速7节,风向东转东南
多云层高于2400英尺
成为
从 19日的 20点(UTC)到 19日的 23点(UTC)
风速5节,风向东转东北
多云层高于2000英尺
短暂存在
从 20日的 00点(UTC)到 20日的 06点(UTC)
风速5节,风向南转西南
多云层高于1600英尺

TAF: HKJK 190500Z 1906/2012 18005KT 9999 BKN017 BECMG 1908/1911 11007KT BKN024 BECMG 1920/1923 06005KT BKN020 TEMPO 2000/2006 20005KT BKN016

超过4000个机场的气象观测和天气预报(METAR&TAF报告)。

可查询的气象台以黄色和红色小点在地图上表示。

将鼠标移到小点上方,可查看气象台名称。

然后点击查看天气观测和预报。

如需切换地图:点击带黑十字的绿色按钮放大地图;点击带横线的绿色按钮缩小地图;或者点击绿色箭头查看邻近地区的地图。


METAR-TAF: